sensor_id;sensor_type;location;lat;lon;timestamp;P1;durP1;ratioP1;P2;durP2;ratioP2
2840;SDS011;53423;49.224;12.074;2023-05-10T00:02:02;5.33;;;4.93;;
2840;SDS011;53423;49.224;12.074;2023-05-10T00:04:31;5.60;;;5.10;;
2840;SDS011;53423;49.224;12.074;2023-05-10T00:06:59;5.67;;;5.17;;
2840;SDS011;53423;49.224;12.074;2023-05-10T00:09:27;5.70;;;5.13;;
2840;SDS011;53423;49.224;12.074;2023-05-10T00:11:55;5.60;;;5.00;;
2840;SDS011;53423;49.224;12.074;2023-05-10T00:14:24;5.60;;;5.10;;
2840;SDS011;53423;49.224;12.074;2023-05-10T00:16:52;5.23;;;4.83;;
2840;SDS011;53423;49.224;12.074;2023-05-10T00:19:20;5.70;;;5.10;;
2840;SDS011;53423;49.224;12.074;2023-05-10T00:21:50;5.77;;;5.27;;
2840;SDS011;53423;49.224;12.074;2023-05-10T00:24:17;5.97;;;5.40;;
2840;SDS011;53423;49.224;12.074;2023-05-10T00:26:45;5.27;;;4.87;;
2840;SDS011;53423;49.224;12.074;2023-05-10T00:29:13;5.97;;;5.40;;
2840;SDS011;53423;49.224;12.074;2023-05-10T00:31:41;5.87;;;5.30;;
2840;SDS011;53423;49.224;12.074;2023-05-10T00:34:09;4.90;;;4.60;;
2840;SDS011;53423;49.224;12.074;2023-05-10T00:36:37;5.67;;;5.17;;
2840;SDS011;53423;49.224;12.074;2023-05-10T00:39:06;6.47;;;5.57;;
2840;SDS011;53423;49.224;12.074;2023-05-10T00:41:34;5.77;;;5.27;;
2840;SDS011;53423;49.224;12.074;2023-05-10T00:44:02;6.43;;;5.83;;
2840;SDS011;53423;49.224;12.074;2023-05-10T00:46:30;6.40;;;5.80;;
2840;SDS011;53423;49.224;12.074;2023-05-10T00:48:58;5.97;;;5.30;;
2840;SDS011;53423;49.224;12.074;2023-05-10T00:51:26;5.57;;;5.07;;
2840;SDS011;53423;49.224;12.074;2023-05-10T00:53:55;6.17;;;5.27;;
2840;SDS011;53423;49.224;12.074;2023-05-10T00:56:24;5.60;;;5.20;;
2840;SDS011;53423;49.224;12.074;2023-05-10T00:58:53;5.23;;;4.90;;
2840;SDS011;53423;49.224;12.074;2023-05-10T01:01:21;5.77;;;5.37;;
2840;SDS011;53423;49.224;12.074;2023-05-10T01:03:49;5.77;;;5.27;;
2840;SDS011;53423;49.224;12.074;2023-05-10T01:06:17;5.67;;;5.07;;
2840;SDS011;53423;49.224;12.074;2023-05-10T01:08:45;5.80;;;5.30;;
2840;SDS011;53423;49.224;12.074;2023-05-10T01:11:13;5.50;;;5.00;;
2840;SDS011;53423;49.224;12.074;2023-05-10T01:13:43;6.20;;;5.50;;
2840;SDS011;53423;49.224;12.074;2023-05-10T01:16:17;7.37;;;5.90;;
2840;SDS011;53423;49.224;12.074;2023-05-10T01:18:45;5.73;;;5.17;;
2840;SDS011;53423;49.224;12.074;2023-05-10T01:21:22;5.83;;;5.20;;
2840;SDS011;53423;49.224;12.074;2023-05-10T01:24:05;5.80;;;5.40;;
2840;SDS011;53423;49.224;12.074;2023-05-10T01:26:58;5.37;;;4.97;;
2840;SDS011;53423;49.224;12.074;2023-05-10T01:32:44;5.77;;;5.27;;
2840;SDS011;53423;49.224;12.074;2023-05-10T01:35:20;6.30;;;5.70;;
2840;SDS011;53423;49.224;12.074;2023-05-10T01:37:57;5.70;;;5.17;;
2840;SDS011;53423;49.224;12.074;2023-05-10T01:40:32;5.27;;;4.67;;
2840;SDS011;53423;49.224;12.074;2023-05-10T01:43:09;5.53;;;4.97;;
2840;SDS011;53423;49.224;12.074;2023-05-10T01:45:46;5.23;;;4.80;;
2840;SDS011;53423;49.224;12.074;2023-05-10T01:48:23;5.10;;;4.70;;
2840;SDS011;53423;49.224;12.074;2023-05-10T01:50:55;5.60;;;5.10;;
2840;SDS011;53423;49.224;12.074;2023-05-10T01:53:25;5.40;;;4.90;;
2840;SDS011;53423;49.224;12.074;2023-05-10T01:55:55;5.63;;;5.13;;
2840;SDS011;53423;49.224;12.074;2023-05-10T01:58:25;6.00;;;5.17;;
2840;SDS011;53423;49.224;12.074;2023-05-10T02:00:56;6.67;;;5.60;;
2840;SDS011;53423;49.224;12.074;2023-05-10T02:03:29;5.63;;;5.20;;
2840;SDS011;53423;49.224;12.074;2023-05-10T02:05:59;5.43;;;5.03;;
2840;SDS011;53423;49.224;12.074;2023-05-10T02:08:27;5.97;;;5.43;;
2840;SDS011;53423;49.224;12.074;2023-05-10T02:10:56;5.17;;;4.77;;
2840;SDS011;53423;49.224;12.074;2023-05-10T02:13:26;5.50;;;5.00;;
2840;SDS011;53423;49.224;12.074;2023-05-10T02:15:56;5.67;;;5.10;;
2840;SDS011;53423;49.224;12.074;2023-05-10T02:18:24;5.60;;;5.10;;
2840;SDS011;53423;49.224;12.074;2023-05-10T02:20:55;7.93;;;4.73;;
2840;SDS011;53423;49.224;12.074;2023-05-10T02:23:25;5.43;;;4.93;;
2840;SDS011;53423;49.224;12.074;2023-05-10T02:25:53;5.20;;;4.80;;
2840;SDS011;53423;49.224;12.074;2023-05-10T02:28:24;5.40;;;4.90;;
2840;SDS011;53423;49.224;12.074;2023-05-10T02:30:54;4.77;;;4.40;;
2840;SDS011;53423;49.224;12.074;2023-05-10T02:33:24;5.27;;;4.77;;
2840;SDS011;53423;49.224;12.074;2023-05-10T02:35:53;5.50;;;5.10;;
2840;SDS011;53423;49.224;12.074;2023-05-10T02:38:24;5.10;;;4.70;;
2840;SDS011;53423;49.224;12.074;2023-05-10T02:40:54;6.60;;;5.10;;
2840;SDS011;53423;49.224;12.074;2023-05-10T02:43:23;5.20;;;4.60;;
2840;SDS011;53423;49.224;12.074;2023-05-10T02:45:53;5.10;;;4.70;;
2840;SDS011;53423;49.224;12.074;2023-05-10T02:48:21;5.27;;;4.77;;
2840;SDS011;53423;49.224;12.074;2023-05-10T02:50:49;5.50;;;5.00;;
2840;SDS011;53423;49.224;12.074;2023-05-10T02:53:22;5.70;;;5.13;;
2840;SDS011;53423;49.224;12.074;2023-05-10T02:55:51;5.13;;;4.63;;
2840;SDS011;53423;49.224;12.074;2023-05-10T02:58:23;5.50;;;5.10;;
2840;SDS011;53423;49.224;12.074;2023-05-10T03:00:51;5.80;;;5.30;;
2840;SDS011;53423;49.224;12.074;2023-05-10T03:03:19;5.87;;;5.43;;
2840;SDS011;53423;49.224;12.074;2023-05-10T03:05:48;6.13;;;5.53;;
2840;SDS011;53423;49.224;12.074;2023-05-10T03:08:16;5.80;;;5.30;;
2840;SDS011;53423;49.224;12.074;2023-05-10T03:10:47;5.73;;;5.23;;
2840;SDS011;53423;49.224;12.074;2023-05-10T03:13:26;5.90;;;5.40;;
2840;SDS011;53423;49.224;12.074;2023-05-10T03:16:04;6.17;;;5.67;;
2840;SDS011;53423;49.224;12.074;2023-05-10T03:18:37;6.17;;;5.63;;
2840;SDS011;53423;49.224;12.074;2023-05-10T03:21:11;5.70;;;5.20;;
2840;SDS011;53423;49.224;12.074;2023-05-10T03:23:44;5.53;;;5.03;;
2840;SDS011;53423;49.224;12.074;2023-05-10T03:26:20;5.73;;;5.27;;
2840;SDS011;53423;49.224;12.074;2023-05-10T03:28:51;6.37;;;5.80;;
2840;SDS011;53423;49.224;12.074;2023-05-10T03:31:20;6.23;;;5.73;;
2840;SDS011;53423;49.224;12.074;2023-05-10T03:33:49;6.40;;;5.80;;
2840;SDS011;53423;49.224;12.074;2023-05-10T03:36:17;6.43;;;5.93;;
2840;SDS011;53423;49.224;12.074;2023-05-10T03:38:45;5.90;;;5.40;;
2840;SDS011;53423;49.224;12.074;2023-05-10T03:41:13;6.07;;;5.57;;
2840;SDS011;53423;49.224;12.074;2023-05-10T03:43:42;6.47;;;5.97;;
2840;SDS011;53423;49.224;12.074;2023-05-10T03:46:10;5.93;;;5.40;;
2840;SDS011;53423;49.224;12.074;2023-05-10T03:48:38;6.27;;;5.67;;
2840;SDS011;53423;49.224;12.074;2023-05-10T03:51:06;6.23;;;5.63;;
2840;SDS011;53423;49.224;12.074;2023-05-10T03:53:34;6.73;;;6.10;;
2840;SDS011;53423;49.224;12.074;2023-05-10T03:56:02;7.07;;;6.43;;
2840;SDS011;53423;49.224;12.074;2023-05-10T03:58:30;7.70;;;7.00;;
2840;SDS011;53423;49.224;12.074;2023-05-10T04:01:00;7.33;;;6.63;;
2840;SDS011;53423;49.224;12.074;2023-05-10T04:03:28;10.33;;;7.03;;
2840;SDS011;53423;49.224;12.074;2023-05-10T04:06:00;7.67;;;6.97;;
2840;SDS011;53423;49.224;12.074;2023-05-10T04:08:28;7.20;;;6.60;;
2840;SDS011;53423;49.224;12.074;2023-05-10T04:11:04;7.60;;;7.00;;
2840;SDS011;53423;49.224;12.074;2023-05-10T04:13:32;8.27;;;7.57;;
2840;SDS011;53423;49.224;12.074;2023-05-10T04:16:02;8.23;;;7.43;;
2840;SDS011;53423;49.224;12.074;2023-05-10T04:18:30;7.10;;;6.43;;
2840;SDS011;53423;49.224;12.074;2023-05-10T04:20:59;7.23;;;6.63;;
2840;SDS011;53423;49.224;12.074;2023-05-10T04:23:26;8.23;;;7.40;;
2840;SDS011;53423;49.224;12.074;2023-05-10T04:25:58;8.37;;;7.57;;
2840;SDS011;53423;49.224;12.074;2023-05-10T04:28:27;9.00;;;7.93;;
2840;SDS011;53423;49.224;12.074;2023-05-10T04:31:00;8.60;;;7.80;;
2840;SDS011;53423;49.224;12.074;2023-05-10T04:33:30;8.17;;;7.37;;
2840;SDS011;53423;49.224;12.074;2023-05-10T04:35:58;8.77;;;7.90;;
2840;SDS011;53423;49.224;12.074;2023-05-10T04:38:27;8.70;;;7.80;;
2840;SDS011;53423;49.224;12.074;2023-05-10T04:41:03;8.20;;;7.50;;
2840;SDS011;53423;49.224;12.074;2023-05-10T04:43:31;8.70;;;7.80;;
2840;SDS011;53423;49.224;12.074;2023-05-10T04:45:59;8.00;;;7.30;;
2840;SDS011;53423;49.224;12.074;2023-05-10T04:48:27;8.47;;;7.63;;
2840;SDS011;53423;49.224;12.074;2023-05-10T04:50:56;8.90;;;8.10;;
2840;SDS011;53423;49.224;12.074;2023-05-10T04:53:24;9.03;;;8.23;;
2840;SDS011;53423;49.224;12.074;2023-05-10T04:55:53;8.80;;;8.03;;
2840;SDS011;53423;49.224;12.074;2023-05-10T04:58:21;9.27;;;8.37;;
2840;SDS011;53423;49.224;12.074;2023-05-10T05:00:48;9.20;;;8.33;;
2840;SDS011;53423;49.224;12.074;2023-05-10T05:03:16;8.70;;;7.90;;
2840;SDS011;53423;49.224;12.074;2023-05-10T05:05:45;9.10;;;8.23;;
2840;SDS011;53423;49.224;12.074;2023-05-10T05:08:14;9.40;;;8.20;;
2840;SDS011;53423;49.224;12.074;2023-05-10T05:10:42;9.23;;;8.43;;
2840;SDS011;53423;49.224;12.074;2023-05-10T05:13:12;10.70;;;8.40;;
2840;SDS011;53423;49.224;12.074;2023-05-10T05:15:40;9.47;;;8.53;;
2840;SDS011;53423;49.224;12.074;2023-05-10T05:18:08;9.07;;;8.30;;
2840;SDS011;53423;49.224;12.074;2023-05-10T05:20:36;9.80;;;8.90;;
2840;SDS011;53423;49.224;12.074;2023-05-10T05:23:04;8.93;;;8.20;;
2840;SDS011;53423;49.224;12.074;2023-05-10T05:25:33;9.40;;;8.50;;
2840;SDS011;53423;49.224;12.074;2023-05-10T05:28:01;10.70;;;9.60;;
2840;SDS011;53423;49.224;12.074;2023-05-10T05:30:29;11.23;;;9.73;;
2840;SDS011;53423;49.224;12.074;2023-05-10T05:32:57;10.03;;;9.13;;
2840;SDS011;53423;49.224;12.074;2023-05-10T05:35:25;10.67;;;9.67;;
2840;SDS011;53423;49.224;12.074;2023-05-10T05:37:53;9.77;;;8.90;;
2840;SDS011;53423;49.224;12.074;2023-05-10T05:40:22;9.80;;;9.00;;
2840;SDS011;53423;49.224;12.074;2023-05-10T05:42:51;10.03;;;9.23;;
2840;SDS011;53423;49.224;12.074;2023-05-10T05:45:19;10.27;;;9.37;;
2840;SDS011;53423;49.224;12.074;2023-05-10T05:47:47;9.97;;;9.07;;
2840;SDS011;53423;49.224;12.074;2023-05-10T05:50:15;10.33;;;9.33;;
2840;SDS011;53423;49.224;12.074;2023-05-10T05:52:43;10.20;;;9.20;;
2840;SDS011;53423;49.224;12.074;2023-05-10T05:55:11;10.67;;;9.57;;
2840;SDS011;53423;49.224;12.074;2023-05-10T05:57:39;10.63;;;9.53;;
2840;SDS011;53423;49.224;12.074;2023-05-10T06:00:09;9.87;;;9.07;;
2840;SDS011;53423;49.224;12.074;2023-05-10T06:02:37;10.33;;;9.43;;
2840;SDS011;53423;49.224;12.074;2023-05-10T06:05:06;11.60;;;9.50;;
2840;SDS011;53423;49.224;12.074;2023-05-10T06:07:34;9.90;;;8.90;;
2840;SDS011;53423;49.224;12.074;2023-05-10T06:10:02;11.23;;;9.97;;
2840;SDS011;53423;49.224;12.074;2023-05-10T06:12:31;10.80;;;9.80;;
2840;SDS011;53423;49.224;12.074;2023-05-10T06:14:58;10.93;;;9.83;;
2840;SDS011;53423;49.224;12.074;2023-05-10T06:17:28;10.33;;;9.33;;
2840;SDS011;53423;49.224;12.074;2023-05-10T06:19:56;10.63;;;9.53;;
2840;SDS011;53423;49.224;12.074;2023-05-10T06:22:24;9.70;;;8.90;;
2840;SDS011;53423;49.224;12.074;2023-05-10T06:24:52;10.23;;;9.37;;
2840;SDS011;53423;49.224;12.074;2023-05-10T06:27:19;10.00;;;9.10;;
2840;SDS011;53423;49.224;12.074;2023-05-10T06:29:47;9.50;;;8.70;;
2840;SDS011;53423;49.224;12.074;2023-05-10T06:32:21;9.70;;;8.80;;
2840;SDS011;53423;49.224;12.074;2023-05-10T06:34:51;11.07;;;10.07;;
2840;SDS011;53423;49.224;12.074;2023-05-10T06:37:19;10.23;;;9.33;;
2840;SDS011;53423;49.224;12.074;2023-05-10T06:39:46;13.10;;;9.40;;
2840;SDS011;53423;49.224;12.074;2023-05-10T06:42:14;10.97;;;8.97;;
2840;SDS011;53423;49.224;12.074;2023-05-10T06:44:42;10.73;;;9.10;;
2840;SDS011;53423;49.224;12.074;2023-05-10T06:47:10;10.80;;;9.40;;
2840;SDS011;53423;49.224;12.074;2023-05-10T06:49:38;10.73;;;9.73;;
2840;SDS011;53423;49.224;12.074;2023-05-10T06:52:08;11.37;;;9.37;;
2840;SDS011;53423;49.224;12.074;2023-05-10T06:54:35;9.90;;;9.00;;
2840;SDS011;53423;49.224;12.074;2023-05-10T06:57:03;10.00;;;9.03;;
2840;SDS011;53423;49.224;12.074;2023-05-10T06:59:44;9.73;;;8.93;;
2840;SDS011;53423;49.224;12.074;2023-05-10T07:02:12;9.70;;;8.80;;
2840;SDS011;53423;49.224;12.074;2023-05-10T07:04:41;10.73;;;9.63;;
2840;SDS011;53423;49.224;12.074;2023-05-10T07:07:10;10.20;;;9.40;;
2840;SDS011;53423;49.224;12.074;2023-05-10T07:09:38;9.90;;;9.00;;
2840;SDS011;53423;49.224;12.074;2023-05-10T07:12:06;9.43;;;8.73;;
2840;SDS011;53423;49.224;12.074;2023-05-10T07:14:37;10.30;;;9.30;;
2840;SDS011;53423;49.224;12.074;2023-05-10T07:17:05;10.67;;;9.77;;
2840;SDS011;53423;49.224;12.074;2023-05-10T07:19:33;10.70;;;9.77;;
2840;SDS011;53423;49.224;12.074;2023-05-10T07:22:01;10.57;;;9.63;;
2840;SDS011;53423;49.224;12.074;2023-05-10T07:24:31;9.90;;;9.10;;
2840;SDS011;53423;49.224;12.074;2023-05-10T07:26:59;10.37;;;9.37;;
2840;SDS011;53423;49.224;12.074;2023-05-10T07:29:27;10.20;;;9.30;;
2840;SDS011;53423;49.224;12.074;2023-05-10T07:31:55;9.90;;;9.00;;
2840;SDS011;53423;49.224;12.074;2023-05-10T07:34:24;9.47;;;8.63;;
2840;SDS011;53423;49.224;12.074;2023-05-10T07:36:52;9.33;;;8.53;;
2840;SDS011;53423;49.224;12.074;2023-05-10T07:39:20;9.87;;;9.07;;
2840;SDS011;53423;49.224;12.074;2023-05-10T07:41:54;9.87;;;8.97;;
2840;SDS011;53423;49.224;12.074;2023-05-10T07:44:23;8.93;;;8.00;;
2840;SDS011;53423;49.224;12.074;2023-05-10T07:46:51;8.63;;;7.87;;
2840;SDS011;53423;49.224;12.074;2023-05-10T07:49:19;8.23;;;7.53;;
2840;SDS011;53423;49.224;12.074;2023-05-10T07:51:47;7.73;;;7.13;;
2840;SDS011;53423;49.224;12.074;2023-05-10T07:54:15;7.37;;;6.73;;
2840;SDS011;53423;49.224;12.074;2023-05-10T07:56:43;6.40;;;5.90;;
2840;SDS011;53423;49.224;12.074;2023-05-10T07:59:16;6.13;;;5.53;;
2840;SDS011;53423;49.224;12.074;2023-05-10T08:01:44;6.53;;;5.93;;
2840;SDS011;53423;49.224;12.074;2023-05-10T08:04:12;5.70;;;5.20;;
2840;SDS011;53423;49.224;12.074;2023-05-10T08:06:40;5.40;;;4.90;;
2840;SDS011;53423;49.224;12.074;2023-05-10T08:09:08;5.23;;;4.73;;
2840;SDS011;53423;49.224;12.074;2023-05-10T08:11:37;4.90;;;4.50;;
2840;SDS011;53423;49.224;12.074;2023-05-10T08:14:05;5.20;;;4.70;;
2840;SDS011;53423;49.224;12.074;2023-05-10T08:16:34;5.33;;;4.83;;
2840;SDS011;53423;49.224;12.074;2023-05-10T08:19:02;5.40;;;4.97;;
2840;SDS011;53423;49.224;12.074;2023-05-10T08:21:32;5.30;;;4.90;;
2840;SDS011;53423;49.224;12.074;2023-05-10T08:24:00;5.20;;;4.80;;
2840;SDS011;53423;49.224;12.074;2023-05-10T08:26:28;5.80;;;5.20;;
2840;SDS011;53423;49.224;12.074;2023-05-10T08:28:56;6.03;;;5.23;;
2840;SDS011;53423;49.224;12.074;2023-05-10T08:31:24;5.97;;;5.37;;
2840;SDS011;53423;49.224;12.074;2023-05-10T08:33:53;5.30;;;4.57;;
2840;SDS011;53423;49.224;12.074;2023-05-10T08:36:21;5.00;;;4.50;;
2840;SDS011;53423;49.224;12.074;2023-05-10T08:38:50;3.90;;;3.60;;
2840;SDS011;53423;49.224;12.074;2023-05-10T08:41:19;4.63;;;4.23;;
2840;SDS011;53423;49.224;12.074;2023-05-10T08:43:48;4.73;;;4.33;;
2840;SDS011;53423;49.224;12.074;2023-05-10T08:46:18;5.70;;;4.63;;
2840;SDS011;53423;49.224;12.074;2023-05-10T08:48:47;4.43;;;4.03;;
2840;SDS011;53423;49.224;12.074;2023-05-10T08:51:19;3.83;;;3.53;;
2840;SDS011;53423;49.224;12.074;2023-05-10T08:53:54;3.13;;;2.83;;
2840;SDS011;53423;49.224;12.074;2023-05-10T08:56:22;2.33;;;2.00;;
2840;SDS011;53423;49.224;12.074;2023-05-10T08:58:51;3.10;;;2.60;;
2840;SDS011;53423;49.224;12.074;2023-05-10T09:01:19;2.70;;;2.50;;
2840;SDS011;53423;49.224;12.074;2023-05-10T09:03:48;2.03;;;1.93;;
2840;SDS011;53423;49.224;12.074;2023-05-10T09:06:19;1.37;;;1.27;;
2840;SDS011;53423;49.224;12.074;2023-05-10T09:08:47;1.23;;;1.00;;
2840;SDS011;53423;49.224;12.074;2023-05-10T09:11:15;1.00;;;1.00;;
2840;SDS011;53423;49.224;12.074;2023-05-10T09:13:43;0.97;;;0.90;;
2840;SDS011;53423;49.224;12.074;2023-05-10T09:16:12;0.70;;;0.70;;
2840;SDS011;53423;49.224;12.074;2023-05-10T09:18:45;0.77;;;0.77;;
2840;SDS011;53423;49.224;12.074;2023-05-10T09:21:13;0.83;;;0.83;;
2840;SDS011;53423;49.224;12.074;2023-05-10T09:23:44;0.80;;;0.80;;
2840;SDS011;53423;49.224;12.074;2023-05-10T09:26:14;0.83;;;0.70;;
2840;SDS011;53423;49.224;12.074;2023-05-10T09:28:51;1.20;;;0.80;;
2840;SDS011;53423;49.224;12.074;2023-05-10T09:31:20;1.33;;;0.70;;
2840;SDS011;53423;49.224;12.074;2023-05-10T09:33:49;1.27;;;0.70;;
2840;SDS011;53423;49.224;12.074;2023-05-10T09:36:17;1.00;;;0.80;;
2840;SDS011;53423;49.224;12.074;2023-05-10T09:38:47;1.77;;;1.13;;
2840;SDS011;53423;49.224;12.074;2023-05-10T09:41:17;0.70;;;0.70;;
2840;SDS011;53423;49.224;12.074;2023-05-10T09:43:46;0.67;;;0.67;;
2840;SDS011;53423;49.224;12.074;2023-05-10T09:46:14;0.80;;;0.80;;
2840;SDS011;53423;49.224;12.074;2023-05-10T09:48:43;1.37;;;0.73;;
2840;SDS011;53423;49.224;12.074;2023-05-10T09:51:18;1.13;;;1.03;;
2840;SDS011;53423;49.224;12.074;2023-05-10T09:53:48;2.20;;;0.90;;
2840;SDS011;53423;49.224;12.074;2023-05-10T09:59:05;0.80;;;0.70;;
2840;SDS011;53423;49.224;12.074;2023-05-10T10:01:33;0.60;;;0.60;;
2840;SDS011;53423;49.224;12.074;2023-05-10T10:04:02;0.80;;;0.70;;
2840;SDS011;53423;49.224;12.074;2023-05-10T10:06:35;0.93;;;0.80;;
2840;SDS011;53423;49.224;12.074;2023-05-10T10:09:06;0.60;;;0.60;;
2840;SDS011;53423;49.224;12.074;2023-05-10T10:11:34;1.03;;;0.60;;
2840;SDS011;53423;49.224;12.074;2023-05-10T10:14:03;1.20;;;0.97;;
2840;SDS011;53423;49.224;12.074;2023-05-10T10:16:31;1.70;;;0.83;;
2840;SDS011;53423;49.224;12.074;2023-05-10T10:19:00;1.73;;;0.67;;
2840;SDS011;53423;49.224;12.074;2023-05-10T10:21:28;2.33;;;0.87;;
2840;SDS011;53423;49.224;12.074;2023-05-10T10:23:57;0.60;;;0.60;;
2840;SDS011;53423;49.224;12.074;2023-05-10T10:26:26;1.13;;;0.77;;
2840;SDS011;53423;49.224;12.074;2023-05-10T10:28:58;1.93;;;0.80;;
2840;SDS011;53423;49.224;12.074;2023-05-10T10:31:39;1.80;;;0.90;;
2840;SDS011;53423;49.224;12.074;2023-05-10T10:34:17;1.57;;;1.13;;
2840;SDS011;53423;49.224;12.074;2023-05-10T10:36:53;1.23;;;0.80;;
2840;SDS011;53423;49.224;12.074;2023-05-10T10:39:22;0.80;;;0.77;;
2840;SDS011;53423;49.224;12.074;2023-05-10T10:41:54;1.17;;;0.60;;
2840;SDS011;53423;49.224;12.074;2023-05-10T10:44:23;0.70;;;0.70;;
2840;SDS011;53423;49.224;12.074;2023-05-10T10:46:59;1.43;;;0.80;;
2840;SDS011;53423;49.224;12.074;2023-05-10T10:49:49;0.67;;;0.40;;
2840;SDS011;53423;49.224;12.074;2023-05-10T10:52:23;1.17;;;0.53;;
2840;SDS011;53423;49.224;12.074;2023-05-10T10:54:58;0.70;;;0.70;;
2840;SDS011;53423;49.224;12.074;2023-05-10T10:57:30;1.40;;;0.63;;
2840;SDS011;53423;49.224;12.074;2023-05-10T11:00:18;1.87;;;0.60;;
2840;SDS011;53423;49.224;12.074;2023-05-10T11:02:51;0.63;;;0.63;;
2840;SDS011;53423;49.224;12.074;2023-05-10T11:08:13;0.70;;;0.70;;
2840;SDS011;53423;49.224;12.074;2023-05-10T11:10:50;0.50;;;0.50;;
2840;SDS011;53423;49.224;12.074;2023-05-10T11:13:31;0.65;;;0.57;;
2840;SDS011;53423;49.224;12.074;2023-05-10T11:16:10;1.52;;;0.60;;
2840;SDS011;53423;49.224;12.074;2023-05-10T11:18:40;0.60;;;0.60;;
2840;SDS011;53423;49.224;12.074;2023-05-10T11:21:18;1.13;;;1.00;;
2840;SDS011;53423;49.224;12.074;2023-05-10T11:23:50;2.75;;;1.10;;
2840;SDS011;53423;49.224;12.074;2023-05-10T11:26:22;1.40;;;0.90;;
2840;SDS011;53423;49.224;12.074;2023-05-10T11:28:53;0.63;;;0.63;;
2840;SDS011;53423;49.224;12.074;2023-05-10T11:31:22;1.47;;;1.37;;
2840;SDS011;53423;49.224;12.074;2023-05-10T11:33:53;2.23;;;1.90;;
2840;SDS011;53423;49.224;12.074;2023-05-10T11:36:24;2.07;;;1.87;;
2840;SDS011;53423;49.224;12.074;2023-05-10T11:38:53;2.27;;;2.07;;
2840;SDS011;53423;49.224;12.074;2023-05-10T11:41:23;1.90;;;1.80;;
2840;SDS011;53423;49.224;12.074;2023-05-10T11:43:53;2.30;;;2.10;;
2840;SDS011;53423;49.224;12.074;2023-05-10T11:46:22;2.23;;;2.07;;
2840;SDS011;53423;49.224;12.074;2023-05-10T11:48:51;2.77;;;2.43;;
2840;SDS011;53423;49.224;12.074;2023-05-10T11:51:20;2.87;;;2.57;;
2840;SDS011;53423;49.224;12.074;2023-05-10T11:53:50;5.23;;;2.70;;
2840;SDS011;53423;49.224;12.074;2023-05-10T11:56:20;1.13;;;0.70;;
2840;SDS011;53423;49.224;12.074;2023-05-10T11:58:52;0.63;;;0.57;;
2840;SDS011;53423;49.224;12.074;2023-05-10T12:01:23;1.20;;;0.80;;
2840;SDS011;53423;49.224;12.074;2023-05-10T12:03:51;0.80;;;0.50;;
2840;SDS011;53423;49.224;12.074;2023-05-10T12:06:21;1.83;;;0.60;;
2840;SDS011;53423;49.224;12.074;2023-05-10T12:08:49;1.10;;;0.80;;
2840;SDS011;53423;49.224;12.074;2023-05-10T12:11:20;3.17;;;0.90;;
2840;SDS011;53423;49.224;12.074;2023-05-10T12:13:51;0.70;;;0.60;;
2840;SDS011;53423;49.224;12.074;2023-05-10T12:16:21;1.17;;;0.50;;
2840;SDS011;53423;49.224;12.074;2023-05-10T12:18:51;1.13;;;0.77;;
2840;SDS011;53423;49.224;12.074;2023-05-10T12:21:20;1.37;;;0.60;;
2840;SDS011;53423;49.224;12.074;2023-05-10T12:23:48;0.50;;;0.50;;
2840;SDS011;53423;49.224;12.074;2023-05-10T12:26:18;1.83;;;0.67;;
2840;SDS011;53423;49.224;12.074;2023-05-10T12:28:48;1.60;;;0.53;;
2840;SDS011;53423;49.224;12.074;2023-05-10T12:31:16;0.80;;;0.80;;
2840;SDS011;53423;49.224;12.074;2023-05-10T12:33:46;0.87;;;0.60;;
2840;SDS011;53423;49.224;12.074;2023-05-10T12:36:16;0.80;;;0.70;;
2840;SDS011;53423;49.224;12.074;2023-05-10T12:38:44;0.77;;;0.63;;
2840;SDS011;53423;49.224;12.074;2023-05-10T12:41:14;0.73;;;0.73;;
2840;SDS011;53423;49.224;12.074;2023-05-10T12:43:43;1.23;;;0.67;;
2840;SDS011;53423;49.224;12.074;2023-05-10T12:46:13;0.70;;;0.70;;
2840;SDS011;53423;49.224;12.074;2023-05-10T12:48:43;1.27;;;0.90;;
2840;SDS011;53423;49.224;12.074;2023-05-10T12:51:13;1.47;;;0.80;;
2840;SDS011;53423;49.224;12.074;2023-05-10T12:53:45;1.10;;;0.87;;
2840;SDS011;53423;49.224;12.074;2023-05-10T12:56:15;1.30;;;0.60;;
2840;SDS011;53423;49.224;12.074;2023-05-10T12:58:42;0.70;;;0.70;;
2840;SDS011;53423;49.224;12.074;2023-05-10T13:01:14;1.03;;;0.93;;
2840;SDS011;53423;49.224;12.074;2023-05-10T13:03:42;1.10;;;1.00;;
2840;SDS011;53423;49.224;12.074;2023-05-10T13:06:10;0.83;;;0.83;;
2840;SDS011;53423;49.224;12.074;2023-05-10T13:08:41;1.30;;;1.20;;
2840;SDS011;53423;49.224;12.074;2023-05-10T13:11:08;1.17;;;1.07;;
2840;SDS011;53423;49.224;12.074;2023-05-10T13:13:36;1.33;;;0.90;;
2840;SDS011;53423;49.224;12.074;2023-05-10T13:16:05;1.13;;;1.03;;
2840;SDS011;53423;49.224;12.074;2023-05-10T13:18:33;1.13;;;0.80;;
2840;SDS011;53423;49.224;12.074;2023-05-10T13:21:01;1.00;;;1.00;;
2840;SDS011;53423;49.224;12.074;2023-05-10T13:23:30;1.27;;;0.93;;
2840;SDS011;53423;49.224;12.074;2023-05-10T13:25:59;3.80;;;1.10;;
2840;SDS011;53423;49.224;12.074;2023-05-10T13:28:27;1.53;;;1.10;;
2840;SDS011;53423;49.224;12.074;2023-05-10T13:30:56;1.27;;;1.17;;
2840;SDS011;53423;49.224;12.074;2023-05-10T13:33:26;3.93;;;1.30;;
2840;SDS011;53423;49.224;12.074;2023-05-10T13:35:54;1.47;;;1.20;;
2840;SDS011;53423;49.224;12.074;2023-05-10T13:38:22;0.97;;;0.97;;
2840;SDS011;53423;49.224;12.074;2023-05-10T13:40:49;1.27;;;1.17;;
2840;SDS011;53423;49.224;12.074;2023-05-10T13:43:20;1.90;;;1.30;;
2840;SDS011;53423;49.224;12.074;2023-05-10T13:45:48;1.60;;;1.50;;
2840;SDS011;53423;49.224;12.074;2023-05-10T13:48:16;1.60;;;1.20;;
2840;SDS011;53423;49.224;12.074;2023-05-10T13:50:44;3.03;;;2.83;;
2840;SDS011;53423;49.224;12.074;2023-05-10T13:53:12;1.07;;;1.07;;
2840;SDS011;53423;49.224;12.074;2023-05-10T13:55:40;2.17;;;1.20;;
2840;SDS011;53423;49.224;12.074;2023-05-10T13:58:08;0.90;;;0.90;;
2840;SDS011;53423;49.224;12.074;2023-05-10T14:00:38;0.87;;;0.73;;
2840;SDS011;53423;49.224;12.074;2023-05-10T14:03:08;1.17;;;1.07;;
2840;SDS011;53423;49.224;12.074;2023-05-10T14:05:38;2.10;;;1.10;;
2840;SDS011;53423;49.224;12.074;2023-05-10T14:08:06;1.00;;;1.00;;
2840;SDS011;53423;49.224;12.074;2023-05-10T14:10:35;1.63;;;1.10;;
2840;SDS011;53423;49.224;12.074;2023-05-10T14:13:04;1.93;;;1.10;;
2840;SDS011;53423;49.224;12.074;2023-05-10T14:15:32;1.37;;;1.00;;
2840;SDS011;53423;49.224;12.074;2023-05-10T14:18:01;1.53;;;1.20;;
2840;SDS011;53423;49.224;12.074;2023-05-10T14:20:29;5.27;;;1.50;;
2840;SDS011;53423;49.224;12.074;2023-05-10T14:22:59;2.23;;;1.30;;
2840;SDS011;53423;49.224;12.074;2023-05-10T14:25:27;1.87;;;1.40;;
2840;SDS011;53423;49.224;12.074;2023-05-10T14:27:55;1.63;;;1.47;;
2840;SDS011;53423;49.224;12.074;2023-05-10T14:30:25;2.67;;;1.73;;
2840;SDS011;53423;49.224;12.074;2023-05-10T14:32:53;1.30;;;1.20;;
2840;SDS011;53423;49.224;12.074;2023-05-10T14:35:23;1.67;;;1.30;;
2840;SDS011;53423;49.224;12.074;2023-05-10T14:37:51;3.57;;;1.33;;
2840;SDS011;53423;49.224;12.074;2023-05-10T14:40:19;1.57;;;0.93;;
2840;SDS011;53423;49.224;12.074;2023-05-10T14:42:47;1.00;;;1.00;;
2840;SDS011;53423;49.224;12.074;2023-05-10T14:45:15;1.60;;;1.20;;
2840;SDS011;53423;49.224;12.074;2023-05-10T14:47:43;1.57;;;1.10;;
2840;SDS011;53423;49.224;12.074;2023-05-10T14:50:11;1.63;;;1.00;;
2840;SDS011;53423;49.224;12.074;2023-05-10T14:53:01;1.30;;;1.10;;
2840;SDS011;53423;49.224;12.074;2023-05-10T14:55:29;1.47;;;1.37;;
2840;SDS011;53423;49.224;12.074;2023-05-10T14:57:57;2.00;;;1.40;;
2840;SDS011;53423;49.224;12.074;2023-05-10T15:00:25;2.10;;;1.40;;
2840;SDS011;53423;49.224;12.074;2023-05-10T15:02:54;3.20;;;1.47;;
2840;SDS011;53423;49.224;12.074;2023-05-10T15:05:22;1.47;;;1.30;;
2840;SDS011;53423;49.224;12.074;2023-05-10T15:07:51;2.13;;;1.80;;
2840;SDS011;53423;49.224;12.074;2023-05-10T15:10:20;4.07;;;1.67;;